Time;durP1;ratioP1;P1;durP2;ratioP2;P2;SDS_P1;SDS_P2;PMS_P1;PMS_P2;Temp;Humidity;BMP_temperature;BMP_pressure;BME280_temperature;BME280_humidity;BME280_pressure;Samples;Min_cycle;Max_cycle;Signal;HPM_P1;HPM_P2
2023/03/13 00:01:18;;;;;;;35.50;4.90;;;8.60;99.90;;;;;;5097523;28;20059;-77
2023/03/13 00:03:44;;;;;;;46.57;4.90;;;8.60;99.90;;;;;;5115965;28;20062;-75
2023/03/13 00:06:10;;;;;;;38.65;4.30;;;8.60;99.90;;;;;;5097444;28;20035;-74
2023/03/13 00:08:36;;;;;;;48.17;5.00;;;8.60;99.90;;;;;;5115130;28;20051;-75
2023/03/13 00:11:07;;;;;;;43.25;6.15;;;8.60;99.90;;;;;;5097724;28;20055;-75
2023/03/13 00:13:33;;;;;;;36.92;4.30;;;8.50;99.90;;;;;;5097744;28;20406;-77
2023/03/13 00:16:03;;;;;;;53.55;5.03;;;8.50;99.90;;;;;;5114812;28;20046;-75
2023/03/13 00:18:29;;;;;;;39.95;5.35;;;8.60;99.90;;;;;;5114803;28;20043;-73
2023/03/13 00:21:04;;;;;;;29.30;4.03;;;8.60;99.90;;;;;;5114760;28;20134;-72
2023/03/13 00:23:31;;;;;;;37.15;3.70;;;8.50;99.90;;;;;;5115223;28;20089;-74
2023/03/13 00:25:58;;;;;;;38.03;6.40;;;8.50;99.90;;;;;;5114686;28;20039;-73
2023/03/13 00:28:26;;;;;;;35.10;4.32;;;8.50;99.90;;;;;;5114596;28;20043;-73
2023/03/13 00:31:05;;;;;;;40.85;5.03;;;8.50;99.90;;;;;;5096590;28;20040;-73
2023/03/13 00:33:32;;;;;;;39.42;4.72;;;8.50;99.90;;;;;;5115017;28;20043;-74
2023/03/13 00:36:06;;;;;;;37.13;4.85;;;8.50;99.90;;;;;;5115261;28;20108;-74
2023/03/13 00:38:33;;;;;;;33.28;5.07;;;8.50;99.90;;;;;;5114376;28;20052;-74
2023/03/13 00:41:04;;;;;;;33.23;5.00;;;8.50;99.90;;;;;;5079660;28;20074;-73
2023/03/13 00:43:31;;;;;;;37.08;4.88;;;8.50;99.90;;;;;;5097197;28;20081;-72
2023/03/13 00:45:57;;;;;;;42.90;4.15;;;8.40;99.90;;;;;;5114391;28;20082;-74
2023/03/13 00:48:23;;;;;;;39.40;5.30;;;8.50;99.90;;;;;;5114734;28;20048;-74
2023/03/13 00:50:49;;;;;;;35.30;4.20;;;8.40;99.90;;;;;;5095948;28;20070;-72
2023/03/13 00:53:15;;;;;;;30.27;3.92;;;8.40;99.90;;;;;;5113456;28;20039;-74
2023/03/13 00:55:57;;;;;;;39.97;4.75;;;8.40;99.90;;;;;;5114012;28;20036;-72
2023/03/13 00:58:24;;;;;;;32.47;6.18;;;8.40;99.90;;;;;;5114097;28;20040;-73
2023/03/13 01:00:51;;;;;;;41.75;7.10;;;8.40;99.90;;;;;;5113995;28;20055;-73
2023/03/13 01:03:17;;;;;;;43.20;4.93;;;8.40;99.90;;;;;;5114143;28;20373;-73
2023/03/13 01:05:43;;;;;;;29.83;3.75;;;8.40;99.90;;;;;;5113948;28;20079;-73
2023/03/13 01:08:09;;;;;;;33.50;3.95;;;8.50;99.90;;;;;;5114476;28;20159;-71
2023/03/13 01:10:34;;;;;;;31.55;5.63;;;8.40;99.90;;;;;;5095775;28;20403;-73
2023/03/13 01:13:00;;;;;;;37.75;4.80;;;8.40;99.90;;;;;;5114401;28;20043;-73
2023/03/13 01:15:26;;;;;;;45.72;4.82;;;8.40;99.90;;;;;;5113724;28;20428;-74
2023/03/13 01:17:52;;;;;;;34.38;5.25;;;8.40;99.90;;;;;;5113501;28;20070;-71
2023/03/13 01:20:17;;;;;;;33.78;5.00;;;8.40;99.90;;;;;;5095723;28;20105;-74
2023/03/13 01:22:43;;;;;;;34.97;4.57;;;8.40;99.90;;;;;;5095700;28;20047;-73
2023/03/13 01:25:09;;;;;;;44.17;5.32;;;8.40;99.90;;;;;;5113794;28;20123;-74
2023/03/13 01:27:34;;;;;;;35.65;4.82;;;8.40;99.90;;;;;;5113775;28;20489;-74
2023/03/13 01:30:00;;;;;;;34.15;4.43;;;8.40;99.90;;;;;;5095611;28;20050;-73
2023/03/13 01:32:26;;;;;;;35.10;4.40;;;8.40;99.90;;;;;;5113456;28;20039;-73
2023/03/13 01:34:52;;;;;;;40.15;4.80;;;8.40;99.90;;;;;;5113609;28;20047;-73
2023/03/13 01:37:17;;;;;;;36.67;5.32;;;8.40;99.90;;;;;;5095630;28;20051;-74
2023/03/13 01:39:43;;;;;;;31.83;4.00;;;8.40;99.90;;;;;;5096414;28;20044;-73
2023/03/13 01:42:09;;;;;;;40.38;4.68;;;8.40;99.90;;;;;;5113992;28;20057;-72
2023/03/13 01:44:55;;;;;;;32.40;4.00;;;8.40;99.90;;;;;;5112584;28;20051;-73
2023/03/13 01:47:22;;;;;;;34.03;4.45;;;8.50;99.90;;;;;;5095406;28;20047;-74
2023/03/13 01:49:49;;;;;;;33.05;4.70;;;8.50;99.90;;;;;;5113501;28;20048;-72
2023/03/13 01:52:17;;;;;;;33.40;5.38;;;8.50;99.90;;;;;;5113841;28;20061;-73
2023/03/13 01:54:57;;;;;;;35.20;4.97;;;8.60;99.90;;;;;;5113232;28;20044;-73
2023/03/13 01:57:35;;;;;;;35.00;5.15;;;8.60;99.90;;;;;;5095863;28;20452;-73
2023/03/13 02:00:09;;;;;;;33.80;5.82;;;8.60;99.90;;;;;;5113572;28;20504;-71
2023/03/13 02:02:37;;;;;;;30.27;5.93;;;8.60;99.90;;;;;;5113555;28;20043;-71
2023/03/13 02:05:04;;;;;;;30.73;4.90;;;8.60;99.90;;;;;;5116165;28;20050;-73
2023/03/13 02:07:36;;;;;;;36.17;5.53;;;8.60;99.90;;;;;;5117324;28;20127;-72
2023/03/13 02:10:02;;;;;;;44.47;6.05;;;8.60;99.90;;;;;;5100023;28;20047;-72
2023/03/13 02:12:39;;;;;;;35.43;6.07;;;8.50;99.90;;;;;;5117324;28;20044;-73
2023/03/13 02:15:08;;;;;;;29.60;5.18;;;8.50;99.90;;;;;;5117287;28;20337;-74
2023/03/13 02:17:36;;;;;;;36.72;5.50;;;8.60;99.90;;;;;;5099957;28;20357;-72
2023/03/13 02:20:02;;;;;;;34.30;5.07;;;8.60;99.90;;;;;;5098873;28;20043;-71
2023/03/13 02:22:55;;;;;;;32.78;4.88;;;8.60;99.90;;;;;;5117683;28;20075;-74
2023/03/13 02:25:23;;;;;;;35.58;4.60;;;8.60;99.90;;;;;;5117932;28;20443;-72
2023/03/13 02:27:59;;;;;;;31.60;5.03;;;8.60;99.90;;;;;;5098807;28;20117;-71
2023/03/13 02:30:25;;;;;;;26.67;4.93;;;8.60;99.90;;;;;;5116991;28;20046;-70
2023/03/13 02:32:51;;;;;;;34.80;5.78;;;8.60;99.90;;;;;;5099629;28;20039;-73
2023/03/13 02:35:22;;;;;;;29.88;4.53;;;8.70;99.90;;;;;;5116704;28;20088;-72
2023/03/13 02:37:53;;;;;;;23.23;3.92;;;8.70;99.90;;;;;;5116863;28;20044;-72
2023/03/13 02:40:25;;;;;;;18.67;3.83;;;8.70;99.90;;;;;;5117691;28;20093;-72
2023/03/13 02:42:52;;;;;;;25.63;4.03;;;8.70;99.90;;;;;;5117503;28;20132;-71
2023/03/13 02:45:18;;;;;;;17.00;4.20;;;8.70;99.90;;;;;;5116588;28;20044;-72
2023/03/13 02:47:43;;;;;;;21.10;3.75;;;8.80;99.90;;;;;;5116542;28;20126;-72
2023/03/13 02:50:10;;;;;;;20.60;3.67;;;8.80;99.90;;;;;;5098940;28;20348;-71
2023/03/13 02:52:42;;;;;;;17.42;4.40;;;8.80;99.90;;;;;;5117098;28;20088;-70
2023/03/13 02:55:23;;;;;;;24.65;3.35;;;8.80;99.90;;;;;;5116389;28;20044;-72
2023/03/13 02:57:49;;;;;;;20.63;4.43;;;8.90;99.90;;;;;;5099160;28;20051;-73
2023/03/13 03:00:16;;;;;;;16.85;3.50;;;8.90;99.90;;;;;;5116591;28;20044;-72
2023/03/13 03:02:43;;;;;;;14.15;3.13;;;8.90;99.90;;;;;;5098080;28;20062;-72
2023/03/13 03:05:10;;;;;;;16.02;3.53;;;8.90;99.90;;;;;;5097711;28;20499;-72
2023/03/13 03:07:35;;;;;;;18.83;3.60;;;9.00;99.90;;;;;;5116206;28;20054;-72
2023/03/13 03:10:01;;;;;;;17.33;4.30;;;9.00;99.90;;;;;;5097968;28;20048;-72
2023/03/13 03:12:27;;;;;;;21.38;4.18;;;9.00;99.90;;;;;;5082094;28;20048;-72
2023/03/13 03:14:52;;;;;;;20.25;5.00;;;9.00;99.90;;;;;;5115907;28;20486;-72
2023/03/13 03:17:18;;;;;;;17.60;3.58;;;9.10;99.90;;;;;;5098233;28;20439;-74
2023/03/13 03:19:44;;;;;;;19.48;3.63;;;9.10;99.90;;;;;;5116252;28;20391;-72
2023/03/13 03:22:10;;;;;;;17.90;4.60;;;9.10;99.90;;;;;;5115951;28;20453;-72
2023/03/13 03:24:36;;;;;;;21.58;4.47;;;9.10;99.90;;;;;;5115831;28;20043;-72
2023/03/13 03:27:01;;;;;;;13.98;3.42;;;9.20;99.90;;;;;;5115816;28;20043;-73
2023/03/13 03:29:27;;;;;;;12.75;3.47;;;9.20;99.90;;;;;;5115796;28;20078;-71
2023/03/13 03:31:53;;;;;;;20.67;3.75;;;9.20;99.90;;;;;;5115427;28;20063;-72
2023/03/13 03:34:19;;;;;;;16.40;4.82;;;9.30;99.90;;;;;;5097455;28;20059;-73
2023/03/13 03:36:45;;;;;;;19.87;4.53;;;9.30;99.90;;;;;;5081710;28;20454;-72
2023/03/13 03:39:10;;;;;;;19.48;4.05;;;9.30;99.90;;;;;;5115628;28;20313;-73
2023/03/13 03:41:36;;;;;;;13.48;4.28;;;9.30;99.90;;;;;;5115141;28;20135;-72
2023/03/13 03:44:03;;;;;;;14.95;4.45;;;9.30;99.90;;;;;;5098242;28;20044;-73
2023/03/13 03:46:28;;;;;;;14.97;4.40;;;9.40;99.90;;;;;;5097155;28;20111;-73
2023/03/13 03:48:54;;;;;;;16.88;4.13;;;9.50;99.90;;;;;;5115386;28;20135;-71
2023/03/13 03:51:21;;;;;;;16.02;4.00;;;9.50;99.90;;;;;;5115396;28;20044;-71
2023/03/13 03:53:47;;;;;;;13.65;5.47;;;9.60;99.90;;;;;;5115342;28;20499;-72
2023/03/13 03:56:13;;;;;;;17.33;4.10;;;9.60;99.90;;;;;;5097154;28;20086;-72
2023/03/13 03:58:38;;;;;;;12.35;3.53;;;9.60;99.90;;;;;;5080630;28;20054;-72
2023/03/13 04:01:04;;;;;;;17.77;3.88;;;9.60;99.90;;;;;;5110698;28;20055;-72
2023/03/13 04:03:30;;;;;;;14.93;3.92;;;9.60;99.90;;;;;;5095387;28;20406;-71
2023/03/13 04:05:56;;;;;;;14.68;4.32;;;9.70;99.90;;;;;;5095217;28;20043;-72
2023/03/13 04:08:22;;;;;;;10.80;2.90;;;9.70;99.90;;;;;;5093212;28;20077;-72
2023/03/13 04:10:48;;;;;;;15.95;4.32;;;9.70;99.90;;;;;;5094753;28;20295;-72
2023/03/13 04:13:14;;;;;;;18.25;4.45;;;9.80;99.90;;;;;;5076480;28;20048;-71
2023/03/13 04:15:40;;;;;;;16.42;4.28;;;9.80;99.90;;;;;;5093075;28;20087;-74
2023/03/13 04:18:06;;;;;;;19.02;4.30;;;9.80;99.90;;;;;;5093591;28;20432;-73
2023/03/13 04:20:33;;;;;;;15.27;5.22;;;9.80;99.90;;;;;;5077665;28;20372;-71
2023/03/13 04:22:58;;;;;;;13.77;4.35;;;9.90;99.90;;;;;;5094878;28;20444;-73
2023/03/13 04:25:24;;;;;;;17.38;5.40;;;9.90;99.90;;;;;;5093168;28;20091;-74
2023/03/13 04:27:51;;;;;;;15.48;4.45;;;9.90;99.90;;;;;;5093272;28;20083;-71
2023/03/13 04:30:17;;;;;;;16.52;4.97;;;9.90;99.90;;;;;;5093280;28;20472;-71
2023/03/13 04:32:42;;;;;;;16.70;4.05;;;10.00;99.90;;;;;;5094489;28;20055;-74
2023/03/13 04:35:08;;;;;;;16.23;4.35;;;10.00;99.90;;;;;;5094184;28;20475;-73
2023/03/13 04:37:34;;;;;;;16.42;4.25;;;10.00;99.90;;;;;;5076198;28;20075;-71
2023/03/13 04:40:00;;;;;;;16.08;4.75;;;10.10;99.90;;;;;;5094834;28;20429;-74
2023/03/13 04:42:26;;;;;;;20.48;4.72;;;10.10;99.90;;;;;;5094612;28;20511;-72
2023/03/13 04:44:53;;;;;;;15.60;5.40;;;10.10;99.90;;;;;;5092973;28;20499;-73
2023/03/13 04:47:18;;;;;;;19.37;6.13;;;10.20;99.90;;;;;;5093903;28;20468;-72
2023/03/13 04:49:44;;;;;;;15.98;4.78;;;10.30;99.90;;;;;;5093184;28;20328;-71
2023/03/13 04:52:10;;;;;;;17.00;5.43;;;10.30;99.90;;;;;;5093654;28;20047;-71
2023/03/13 04:54:35;;;;;;;16.90;4.97;;;10.30;99.90;;;;;;5093739;28;20430;-72
2023/03/13 04:57:02;;;;;;;20.35;5.95;;;10.30;99.90;;;;;;5093718;28;20044;-73
2023/03/13 04:59:28;;;;;;;18.92;4.75;;;10.40;99.90;;;;;;5093824;28;20052;-72
2023/03/13 05:01:54;;;;;;;11.23;3.75;;;10.40;99.90;;;;;;5107990;28;20475;-72
2023/03/13 05:04:19;;;;;;;20.25;4.80;;;10.40;99.90;;;;;;5113978;28;20097;-72
2023/03/13 05:06:45;;;;;;;16.35;4.15;;;10.40;99.90;;;;;;5114009;28;20051;-73
2023/03/13 05:09:11;;;;;;;17.83;5.55;;;10.40;99.90;;;;;;5114585;28;20093;-70
2023/03/13 05:11:36;;;;;;;18.67;6.18;;;10.50;99.90;;;;;;5062489;28;20356;-71
2023/03/13 05:14:03;;;;;;;20.02;7.35;;;10.50;99.90;;;;;;5114090;28;20070;-72
2023/03/13 05:16:28;;;;;;;19.03;5.70;;;10.60;99.90;;;;;;5113613;28;20495;-73
2023/03/13 05:18:54;;;;;;;22.55;6.32;;;10.60;99.90;;;;;;5096268;28;20187;-71
2023/03/13 05:21:20;;;;;;;20.70;6.47;;;10.70;99.90;;;;;;5113859;28;20035;-72
2023/03/13 05:23:46;;;;;;;23.08;7.78;;;10.70;99.90;;;;;;5096616;28;20480;-72
2023/03/13 05:26:11;;;;;;;22.23;7.55;;;10.70;99.90;;;;;;5113698;28;20074;-72
2023/03/13 05:28:37;;;;;;;23.90;7.10;;;10.80;99.90;;;;;;5095721;28;20039;-73
2023/03/13 05:31:03;;;;;;;23.58;7.57;;;10.80;99.90;;;;;;5095583;28;20136;-73
2023/03/13 05:33:28;;;;;;;27.98;7.75;;;10.80;99.90;;;;;;5114155;28;20155;-72
2023/03/13 05:35:54;;;;;;;26.13;8.35;;;10.80;99.90;;;;;;5078658;28;20043;-72
2023/03/13 05:38:20;;;;;;;30.05;11.48;;;10.80;99.90;;;;;;5113644;28;20091;-71
2023/03/13 05:40:45;;;;;;;31.00;9.45;;;10.90;99.90;;;;;;5117853;28;20150;-72
2023/03/13 05:43:11;;;;;;;25.90;8.75;;;10.90;99.90;;;;;;5117768;28;20044;-73
2023/03/13 05:45:37;;;;;;;19.85;6.13;;;10.90;99.90;;;;;;5099535;28;20066;-71
2023/03/13 05:48:02;;;;;;;26.48;7.55;;;10.90;99.90;;;;;;5117390;28;20040;-72
2023/03/13 05:50:28;;;;;;;25.63;8.45;;;11.00;99.90;;;;;;5099605;28;20444;-72
2023/03/13 05:52:54;;;;;;;22.73;7.40;;;11.00;99.90;;;;;;5099544;28;20055;-72
2023/03/13 05:55:20;;;;;;;23.17;7.35;;;11.10;99.90;;;;;;5117462;28;20044;-72
2023/03/13 05:57:47;;;;;;;30.58;7.95;;;11.10;99.90;;;;;;5082427;28;20188;-72
2023/03/13 06:00:14;;;;;;;24.80;7.53;;;11.10;99.90;;;;;;5083335;28;20051;-71
2023/03/13 06:02:41;;;;;;;18.50;7.28;;;11.10;99.90;;;;;;5095962;28;20056;-72
2023/03/13 06:05:07;;;;;;;26.63;8.90;;;11.10;99.90;;;;;;5097538;28;20052;-71
2023/03/13 06:07:33;;;;;;;23.10;7.63;;;11.20;99.90;;;;;;5096036;28;20063;-71
2023/03/13 06:09:59;;;;;;;21.00;7.43;;;11.20;99.90;;;;;;5097016;28;20044;-71
2023/03/13 06:12:24;;;;;;;18.90;6.50;;;11.20;99.90;;;;;;5078703;28;20036;-70
2023/03/13 06:14:50;;;;;;;21.45;8.45;;;11.20;99.90;;;;;;5078713;28;20051;-71
2023/03/13 06:17:16;;;;;;;20.50;6.22;;;11.30;99.90;;;;;;5095518;28;20400;-72
2023/03/13 06:19:42;;;;;;;25.77;7.68;;;11.30;99.90;;;;;;5096808;28;20086;-71
2023/03/13 06:22:08;;;;;;;25.15;7.80;;;11.30;99.90;;;;;;5096758;28;20040;-71
2023/03/13 06:24:33;;;;;;;19.90;6.85;;;11.30;99.90;;;;;;5097522;28;20040;-71
2023/03/13 06:26:59;;;;;;;18.88;6.22;;;11.30;99.90;;;;;;5095584;28;20050;-72
2023/03/13 06:29:25;;;;;;;21.30;7.13;;;11.30;99.90;;;;;;5096463;28;20040;-72
2023/03/13 06:31:51;;;;;;;21.88;7.15;;;11.30;99.90;;;;;;5095497;28;20083;-71
2023/03/13 06:34:17;;;;;;;21.27;6.00;;;11.40;99.90;;;;;;5096342;28;20059;-71
2023/03/13 06:36:43;;;;;;;27.05;6.97;;;11.30;99.90;;;;;;5095434;28;20040;-72
2023/03/13 06:39:10;;;;;;;19.85;5.88;;;11.30;99.90;;;;;;5097123;28;20044;-72
2023/03/13 06:41:36;;;;;;;18.83;5.75;;;11.30;99.90;;;;;;5096421;28;20123;-72
2023/03/13 06:44:03;;;;;;;21.75;6.30;;;11.40;99.90;;;;;;5095258;28;20079;-73
2023/03/13 06:46:28;;;;;;;20.48;4.53;;;11.40;99.90;;;;;;5079091;28;20101;-72
2023/03/13 06:48:54;;;;;;;22.80;5.78;;;11.40;99.90;;;;;;5096758;28;20499;-72
2023/03/13 06:51:21;;;;;;;20.98;5.25;;;11.40;99.90;;;;;;5095104;28;20052;-73
2023/03/13 06:53:48;;;;;;;20.52;4.93;;;11.30;99.90;;;;;;5095155;28;20490;-72
2023/03/13 06:56:13;;;;;;;22.02;6.03;;;11.40;99.90;;;;;;5095880;28;20127;-72
2023/03/13 06:58:40;;;;;;;25.83;5.45;;;11.50;99.90;;;;;;5096165;28;20128;-72
2023/03/13 07:01:10;;;;;;;18.17;5.87;;;11.50;99.90;;;;;;5077798;28;20059;-71
2023/03/13 07:03:37;;;;;;;20.40;5.00;;;11.50;99.90;;;;;;5095889;28;20471;-70
2023/03/13 07:06:04;;;;;;;19.00;4.90;;;11.50;99.90;;;;;;5094653;28;20048;-70
2023/03/13 07:08:30;;;;;;;;;;;11.50;99.90;;;;;;5095027;28;20392;-72
2023/03/13 07:11:03;;;;;;;17.97;4.17;;;11.50;99.90;;;;;;5095833;28;19920;-73
2023/03/13 07:13:29;;;;;;;23.58;4.65;;;11.60;99.90;;;;;;5095281;28;20060;-74
2023/03/13 07:15:55;;;;;;;20.17;4.70;;;11.60;99.90;;;;;;5095610;28;20047;-73
2023/03/13 07:18:21;;;;;;;17.55;4.28;;;11.60;99.90;;;;;;5094375;28;20076;-73
2023/03/13 07:20:59;;;;;;;28.17;4.97;;;11.60;99.90;;;;;;5094677;28;20051;-72
2023/03/13 07:23:25;;;;;;;;;;;11.60;99.90;;;;;;5095940;28;20090;-71
2023/03/13 07:25:59;;;;;;;20.13;4.07;;;11.60;99.90;;;;;;5094554;28;19995;-72
2023/03/13 07:28:26;;;;;;;14.95;4.10;;;11.70;99.90;;;;;;5077932;28;20488;-72
2023/03/13 07:30:52;;;;;;;13.60;4.15;;;11.70;99.90;;;;;;5095387;28;20040;-75
2023/03/13 07:33:18;;;;;;;15.15;3.78;;;11.70;99.90;;;;;;5077385;28;20056;-75
2023/03/13 07:35:49;;;;;;;13.88;3.83;;;11.80;99.90;;;;;;5095362;28;20036;-74
2023/03/13 07:38:14;;;;;;;10.20;2.83;;;11.80;99.90;;;;;;5095327;28;20047;-75
2023/03/13 07:40:53;;;;;;;13.43;3.95;;;11.80;99.90;;;;;;5093912;28;20039;-73
2023/03/13 07:43:20;;;;;;;14.25;4.07;;;11.90;99.90;;;;;;5095299;28;20052;-73
2023/03/13 07:45:58;;;;;;;12.85;3.88;;;11.90;99.90;;;;;;5095166;28;20044;-75
2023/03/13 07:48:43;;;;;;;13.75;3.67;;;12.00;99.90;;;;;;5095378;28;20044;-73
2023/03/13 07:51:23;;;;;;;14.82;4.10;;;12.00;99.90;;;;;;5094110;28;20048;-74
2023/03/13 07:53:50;;;;;;;13.82;3.85;;;12.10;99.90;;;;;;5077646;28;20105;-74
2023/03/13 07:56:23;;;;;;;11.20;3.83;;;12.20;99.90;;;;;;5094920;28;20105;-74
2023/03/13 07:58:50;;;;;;;7.18;2.85;;;12.10;99.90;;;;;;5094943;28;20040;-74
2023/03/13 08:01:19;;;;;;;8.05;2.80;;;12.20;99.90;;;;;;5102958;28;20109;-75
2023/03/13 08:03:47;;;;;;;15.55;2.90;;;12.20;99.90;;;;;;5115909;28;20445;-70
2023/03/13 08:06:16;;;;;;;10.85;2.83;;;12.20;99.90;;;;;;5115042;28;20047;-73
2023/03/13 08:08:42;;;;;;;8.40;2.75;;;12.10;99.90;;;;;;5096669;28;20552;-74
2023/03/13 08:11:23;;;;;;;14.00;3.55;;;12.20;99.90;;;;;;5115020;28;20052;-76
2023/03/13 08:13:49;;;;;;;14.10;3.33;;;12.10;99.90;;;;;;5080125;28;20077;-73
2023/03/13 08:16:18;;;;;;;9.82;3.17;;;12.00;99.90;;;;;;5080310;28;20048;-74
2023/03/13 08:18:46;;;;;;;16.35;3.08;;;12.00;99.90;;;;;;5115713;28;20047;-74
2023/03/13 08:21:14;;;;;;;9.68;2.65;;;12.00;99.90;;;;;;5115776;28;20069;-75
2023/03/13 08:23:40;;;;;;;10.32;2.75;;;12.00;99.90;;;;;;5115448;28;20111;-75
2023/03/13 08:26:15;;;;;;;6.47;2.60;;;12.00;99.90;;;;;;5096758;28;20050;-74
2023/03/13 08:28:41;;;;;;;10.43;2.83;;;12.10;99.90;;;;;;5097625;28;20088;-72
2023/03/13 08:31:13;;;;;;;7.38;2.70;;;12.00;99.90;;;;;;5115716;28;20122;-73
2023/03/13 08:33:41;;;;;;;9.77;1.90;;;12.10;99.90;;;;;;5115316;28;20048;-73
2023/03/13 08:36:16;;;;;;;9.43;2.20;;;12.10;99.90;;;;;;5097325;28;20348;-73
2023/03/13 08:38:44;;;;;;;6.88;1.88;;;12.10;99.90;;;;;;5096587;28;20048;-75
2023/03/13 08:41:32;;;;;;;9.27;1.92;;;12.20;99.90;;;;;;5097399;28;20044;-73
2023/03/13 08:43:58;;;;;;;7.35;2.17;;;12.30;99.90;;;;;;5114605;28;20043;-75
2023/03/13 08:46:24;;;;;;;5.75;1.55;;;12.30;99.90;;;;;;5114556;28;20043;-74
2023/03/13 08:48:52;;;;;;;5.22;1.55;;;12.30;99.90;;;;;;5115281;28;20364;-77
2023/03/13 08:51:18;;;;;;;;;;;12.40;99.90;;;;;;5097011;28;20040;-75
2023/03/13 08:53:44;;;;;;;6.85;1.60;;;12.50;99.90;;;;;;5113656;28;19920;-73
2023/03/13 08:56:12;;;;;;;6.25;1.95;;;12.50;99.90;;;;;;5097417;28;20075;-75
2023/03/13 08:58:38;;;;;;;4.97;1.40;;;12.60;99.90;;;;;;5115523;28;20344;-75
2023/03/13 09:01:13;;;;;;;11.18;1.75;;;12.70;99.90;;;;;;5096650;28;20055;-76
2023/03/13 09:03:40;;;;;;;8.10;1.75;;;12.70;99.90;;;;;;5114766;28;20047;-75
2023/03/13 09:06:07;;;;;;;6.22;2.00;;;12.80;99.90;;;;;;5115129;28;20035;-78
2023/03/13 09:08:33;;;;;;;7.55;1.45;;;12.90;99.90;;;;;;5079852;28;20051;-77
2023/03/13 09:11:07;;;;;;;8.18;1.42;;;12.90;99.90;;;;;;5114768;28;20051;-75
2023/03/13 09:13:35;;;;;;;7.00;1.50;;;13.00;99.90;;;;;;5079078;28;20479;-75
2023/03/13 09:16:07;;;;;;;9.90;1.70;;;13.00;99.90;;;;;;5096664;28;20039;-75
2023/03/13 09:18:33;;;;;;;8.63;1.60;;;12.90;99.90;;;;;;5114269;28;20055;-75
2023/03/13 09:20:59;;;;;;;5.43;1.35;;;13.00;99.90;;;;;;5115273;28;20040;-77
2023/03/13 09:23:25;;;;;;;7.03;0.95;;;12.90;99.90;;;;;;5115127;28;20486;-74
2023/03/13 09:25:53;;;;;;;7.38;1.48;;;13.10;99.90;;;;;;5096683;28;20059;-75
2023/03/13 09:28:19;;;;;;;7.30;1.45;;;13.10;99.90;;;;;;5080413;28;20100;-78
2023/03/13 09:30:45;;;;;;;7.65;1.23;;;13.10;99.90;;;;;;5096592;28;20127;-75
2023/03/13 09:33:10;;;;;;;7.18;1.30;;;13.20;99.90;;;;;;5096240;28;20130;-75
2023/03/13 09:35:39;;;;;;;8.05;1.30;;;13.20;99.90;;;;;;5096468;28;20133;-77
2023/03/13 09:38:06;;;;;;;7.80;2.38;;;13.20;99.90;;;;;;5079697;28;20068;-76
2023/03/13 09:40:39;;;;;;;3.92;1.00;;;13.30;99.90;;;;;;5096651;28;20097;-77
2023/03/13 09:43:32;;;;;;;6.63;1.17;;;13.30;99.90;;;;;;5097750;28;20069;-78
2023/03/13 09:46:01;;;;;;;6.03;0.90;;;13.30;99.90;;;;;;5115949;28;20044;-79
2023/03/13 09:48:32;;;;;;;7.90;1.25;;;13.40;99.90;;;;;;5098317;28;20087;-75
2023/03/13 09:51:12;;;;;;;7.65;1.52;;;13.40;99.90;;;;;;5098196;28;20050;-80
2023/03/13 09:53:52;;;;;;;6.13;0.98;;;13.60;99.90;;;;;;5115186;28;20040;-76
2023/03/13 09:56:39;;;;;;;5.55;0.95;;;13.60;99.90;;;;;;5116794;28;20502;-77
2023/03/13 09:59:17;;;;;;;5.82;0.90;;;13.70;99.90;;;;;;5082933;28;20108;-76
2023/03/13 10:01:45;;;;;;;9.38;1.17;;;13.70;99.90;;;;;;5081766;28;20052;-76
2023/03/13 10:04:42;;;;;;;9.70;1.15;;;13.80;99.90;;;;;;5099629;28;20108;-79
2023/03/13 10:07:11;;;;;;;7.15;1.58;;;13.80;99.90;;;;;;5116961;28;20430;-77
2023/03/13 10:09:39;;;;;;;9.07;1.02;;;13.80;99.90;;;;;;5099072;28;20039;-77
2023/03/13 10:12:05;;;;;;;5.70;1.23;;;14.10;99.90;;;;;;5099245;28;20087;-74
2023/03/13 10:14:45;;;;;;;7.97;1.00;;;14.30;99.90;;;;;;5116600;28;20044;-76
2023/03/13 10:17:30;;;;;;;6.90;1.00;;;14.40;99.90;;;;;;5098048;28;20047;-79
2023/03/13 10:20:20;;;;;;;7.60;1.15;;;14.30;99.90;;;;;;5098328;28;20047;-76
2023/03/13 10:22:51;;;;;;;8.15;1.90;;;14.20;99.90;;;;;;5117534;28;20048;-78
2023/03/13 10:25:40;;;;;;;10.38;1.33;;;14.20;99.90;;;;;;5118866;28;20039;-77
2023/03/13 10:28:12;;;;;;;8.82;1.30;;;14.10;99.90;;;;;;5103309;28;20153;-76
2023/03/13 10:30:53;;;;;;;11.70;1.52;;;14.20;99.90;;;;;;5102523;28;20040;-77
2023/03/13 10:33:26;;;;;;;8.88;1.23;;;14.10;99.90;;;;;;5122453;28;20043;-80
2023/03/13 10:36:02;;;;;;;14.55;1.48;;;14.10;99.90;;;;;;5122027;28;20065;-77
2023/03/13 10:38:28;;;;;;;7.53;1.20;;;14.10;99.90;;;;;;5121833;28;20040;-77
2023/03/13 10:40:59;;;;;;;9.63;1.53;;;14.20;99.90;;;;;;5104139;28;20055;-77
2023/03/13 10:43:27;;;;;;;10.60;1.60;;;14.20;99.90;;;;;;5120497;28;20039;-76
2023/03/13 10:45:53;;;;;;;14.15;2.00;;;14.30;99.90;;;;;;5121383;28;20083;-77
2023/03/13 10:48:19;;;;;;;8.18;1.45;;;14.40;99.90;;;;;;5120631;28;20051;-79
2023/03/13 10:50:48;;;;;;;12.30;1.65;;;14.40;99.90;;;;;;5121199;28;20082;-76
2023/03/13 10:53:26;;;;;;;8.23;1.27;;;14.40;99.90;;;;;;5103059;28;20483;-76
2023/03/13 10:56:13;;;;;;;9.05;1.75;;;14.40;99.90;;;;;;5121306;28;20084;-76
2023/03/13 10:58:48;;;;;;;10.65;1.40;;;14.40;99.90;;;;;;5119868;28;20066;-78
2023/03/13 11:01:32;;;;;;;7.47;0.90;;;14.50;99.90;;;;;;5084496;28;20062;-77
2023/03/13 11:04:17;;;;;;;7.50;0.98;;;14.60;99.90;;;;;;5120066;28;20067;-76
2023/03/13 11:06:51;;;;;;;5.05;0.95;;;14.70;99.90;;;;;;5099010;28;20051;-75
2023/03/13 11:09:18;;;;;;;10.90;0.90;;;14.90;99.90;;;;;;5116268;28;20051;-75
2023/03/13 11:12:03;;;;;;;6.95;0.70;;;15.10;99.90;;;;;;5098512;28;20127;-73
2023/03/13 11:14:29;;;;;;;5.55;0.95;;;15.10;99.90;;;;;;5116929;28;20144;-74
2023/03/13 11:17:22;;;;;;;6.72;0.82;;;15.20;99.90;;;;;;5097793;28;20091;-73
2023/03/13 11:20:29;;;;;;;5.15;0.60;;;15.20;99.90;;;;;;5116079;28;20047;-77
2023/03/13 11:23:13;;;;;;;12.32;1.10;;;15.30;99.90;;;;;;5117455;28;20126;-77
2023/03/13 11:25:57;;;;;;;4.78;0.70;;;15.40;99.90;;;;;;5117096;28;20074;-80
2023/03/13 11:28:38;;;;;;;9.65;1.02;;;15.50;99.90;;;;;;5117891;28;20051;-75
2023/03/13 11:31:12;;;;;;;6.20;0.63;;;15.60;99.90;;;;;;5083471;28;20052;-80
2023/03/13 11:33:52;;;;;;;5.13;0.80;;;15.60;99.90;;;;;;5116510;28;20097;-79
2023/03/13 11:36:24;;;;;;;4.10;0.60;;;15.70;99.90;;;;;;5116307;28;20115;-79
2023/03/13 11:39:02;;;;;;;5.53;0.40;;;15.90;99.90;;;;;;5081914;28;20047;-78
2023/03/13 11:41:51;;;;;;;5.47;0.65;;;16.10;99.90;;;;;;5098072;28;20514;-76
2023/03/13 11:44:25;;;;;;;2.67;0.50;;;16.20;99.90;;;;;;5099252;28;20044;-81
2023/03/13 11:47:17;;;;;;;7.75;1.00;;;16.30;99.90;;;;;;5081622;28;20086;-77
2023/03/13 11:50:03;;;;;;;5.70;0.77;;;16.10;99.90;;;;;;5116545;28;20044;-81
2023/03/13 11:52:48;;;;;;;6.35;0.68;;;;;;;;;;5116673;28;20055;-81
2023/03/13 11:55:51;;;;;;;10.20;0.70;;;16.40;99.90;;;;;;5098883;28;20090;-78
2023/03/13 11:58:34;;;;;;;5.70;0.60;;;16.60;99.90;;;;;;5117059;28;20487;-77
2023/03/13 12:01:16;;;;;;;5.03;0.60;;;16.50;99.90;;;;;;5117452;28;20055;-79
2023/03/13 12:04:12;;;;;;;7.63;0.50;;;16.60;99.90;;;;;;5099357;28;20177;-78
2023/03/13 12:06:53;;;;;;;7.95;0.60;;;16.60;99.90;;;;;;5116697;28;20047;-79
2023/03/13 12:09:40;;;;;;;5.75;0.77;;;16.50;99.90;;;;;;5117372;28;20054;-81
2023/03/13 12:12:54;;;;;;;4.78;0.70;;;16.60;99.90;;;;;;5099139;28;20048;-80
2023/03/13 12:15:36;;;;;;;11.05;1.02;;;16.60;99.90;;;;;;5053384;28;20073;-79
2023/03/13 12:18:25;;;;;;;7.82;0.95;;;16.50;99.90;;;;;;5053734;28;20044;-77
2023/03/13 12:21:16;;;;;;;7.05;0.80;;;16.50;99.90;;;;;;5100517;28;20052;-81
2023/03/13 12:23:51;;;;;;;6.40;0.70;;;16.50;99.90;;;;;;5115944;28;20044;-80
2023/03/13 12:26:19;;;;;;;7.05;0.75;;;16.60;99.90;;;;;;5098285;28;20074;-79
2023/03/13 12:29:06;;;;;;;3.50;0.70;;;16.70;99.90;;;;;;5115799;28;20110;-79
2023/03/13 12:31:41;;;;;;;7.30;0.80;;;16.70;99.90;;;;;;5116150;28;20048;-80
2023/03/13 12:34:43;;;;;;;5.82;0.80;;;16.60;99.90;;;;;;5116032;28;20176;-78
2023/03/13 12:37:48;;;;;;;5.18;0.70;;;16.60;99.90;;;;;;5115586;28;20054;-76
2023/03/13 12:40:50;;;;;;;4.80;0.55;;;16.50;99.90;;;;;;5085826;28;20523;-74
2023/03/13 12:43:23;;;;;;;6.15;0.85;;;16.30;99.90;;;;;;5097473;28;20437;-80
2023/03/13 12:45:58;;;;;;;4.82;0.82;;;16.40;99.90;;;;;;5081000;28;20090;-78
2023/03/13 12:48:50;;;;;;;5.07;0.60;;;16.40;99.90;;;;;;5096663;28;20047;-80
2023/03/13 12:51:42;;;;;;;4.03;0.70;;;16.30;99.90;;;;;;5115637;28;20050;-82
2023/03/13 12:54:34;;;;;;;4.53;0.50;;;16.10;99.90;;;;;;5078474;28;20119;-77
2023/03/13 12:57:40;;;;;;;6.35;0.60;;;16.30;99.90;;;;;;5115882;28;20043;-81
2023/03/13 13:00:15;;;;;;;6.30;0.95;;;16.40;99.90;;;;;;5115520;28;20050;-79
2023/03/13 13:02:41;;;;;;;3.25;0.60;;;16.40;99.90;;;;;;5115433;28;20507;-80
2023/03/13 13:05:19;;;;;;;6.60;0.80;;;16.30;99.90;;;;;;5114650;28;20043;-80